createdAt,value
2018-12-27T00:01:45.711Z,2.80
2018-12-27T00:04:14.417Z,2.23
2018-12-27T00:06:43.047Z,2.60
2018-12-27T00:09:12.073Z,2.97
2018-12-27T00:11:40.734Z,2.40
2018-12-27T00:14:09.423Z,3.63
2018-12-27T00:16:38.432Z,2.27
2018-12-27T00:19:07.096Z,1.93
2018-12-27T00:21:35.822Z,1.70
2018-12-27T00:24:04.493Z,2.07
2018-12-27T00:26:33.111Z,1.33
2018-12-27T00:29:01.885Z,2.07
2018-12-27T00:31:31.075Z,1.80
2018-12-27T00:33:59.827Z,1.77
2018-12-27T00:36:28.501Z,1.67
2018-12-27T00:38:57.255Z,1.90
2018-12-27T00:41:25.939Z,1.60
2018-12-27T00:43:54.760Z,1.60
2018-12-27T00:46:23.699Z,1.53
2018-12-27T00:48:52.436Z,1.93
2018-12-27T00:51:21.224Z,1.73
2018-12-27T00:53:50.266Z,1.87
2018-12-27T00:56:19.121Z,1.73
2018-12-27T00:58:47.863Z,1.70
2018-12-27T01:01:16.883Z,1.70
2018-12-27T01:03:45.578Z,1.77
2018-12-27T01:06:14.258Z,1.60
2018-12-27T01:08:43.109Z,1.60
2018-12-27T01:11:11.793Z,1.70
2018-12-27T01:13:40.474Z,1.30
2018-12-27T01:16:09.329Z,1.37
2018-12-27T01:18:38.097Z,1.13
2018-12-27T01:21:06.783Z,1.73
2018-12-27T01:23:35.699Z,1.97
2018-12-27T01:26:04.509Z,1.67
2018-12-27T01:28:33.350Z,2.60
2018-12-27T01:31:02.385Z,2.73
2018-12-27T01:33:31.227Z,2.10
2018-12-27T01:36:00.020Z,2.40
2018-12-27T01:38:29.045Z,2.60
2018-12-27T01:40:57.799Z,2.93
2018-12-27T01:43:26.609Z,2.40
2018-12-27T01:45:55.710Z,1.90
2018-12-27T01:48:24.467Z,2.20
2018-12-27T01:50:53.294Z,2.03
2018-12-27T01:53:22.493Z,2.27
2018-12-27T01:55:51.241Z,2.70
2018-12-27T01:58:19.929Z,2.43
2018-12-27T02:00:48.968Z,2.00
2018-12-27T02:03:17.711Z,2.20
2018-12-27T02:05:46.450Z,2.90
2018-12-27T02:08:15.424Z,3.30
2018-12-27T02:10:44.280Z,2.80
2018-12-27T02:13:13.077Z,3.03
2018-12-27T02:15:42.221Z,3.47
2018-12-27T02:18:10.982Z,3.57
2018-12-27T02:20:39.725Z,2.63
2018-12-27T02:23:08.774Z,3.37
2018-12-27T02:25:37.578Z,2.70
2018-12-27T02:28:06.326Z,2.57
2018-12-27T02:30:35.154Z,1.53
2018-12-27T02:33:03.832Z,2.20
2018-12-27T02:35:32.512Z,2.50
2018-12-27T02:38:01.752Z,2.67
2018-12-27T02:40:30.553Z,2.60
2018-12-27T02:42:59.265Z,2.73
2018-12-27T02:45:28.364Z,2.07
2018-12-27T02:47:57.220Z,2.43
2018-12-27T02:50:25.971Z,3.43
2018-12-27T02:52:54.942Z,2.40
2018-12-27T02:55:23.778Z,3.13
2018-12-27T02:57:52.588Z,3.60
2018-12-27T03:00:21.804Z,5.57
2018-12-27T03:02:50.494Z,2.70
2018-12-27T03:05:19.240Z,3.47
2018-12-27T03:07:48.381Z,4.40
2018-12-27T03:10:17.242Z,3.60
2018-12-27T03:12:45.910Z,2.73
2018-12-27T03:15:15.047Z,3.20
2018-12-27T03:17:44.147Z,2.90
2018-12-27T03:20:12.817Z,2.17
2018-12-27T03:22:41.636Z,1.93
2018-12-27T03:25:10.320Z,2.10
2018-12-27T03:27:39.164Z,2.47
2018-12-27T03:30:08.195Z,3.43
2018-12-27T03:32:37.023Z,2.87
2018-12-27T03:35:05.717Z,2.73
2018-12-27T03:37:34.661Z,3.13
2018-12-27T03:40:03.473Z,3.50
2018-12-27T03:42:32.286Z,2.73
2018-12-27T03:45:01.313Z,2.83
2018-12-27T03:47:29.997Z,2.50
2018-12-27T03:49:58.756Z,2.90
2018-12-27T03:52:27.555Z,3.30
2018-12-27T03:54:56.306Z,3.07
2018-12-27T03:57:24.974Z,2.87
2018-12-27T03:59:54.156Z,3.63
2018-12-27T04:02:23.003Z,3.77
2018-12-27T04:04:51.834Z,2.63
2018-12-27T04:07:23.685Z,2.93
2018-12-27T04:09:52.540Z,3.00
2018-12-27T04:12:21.296Z,2.53
2018-12-27T04:14:50.346Z,2.40
2018-12-27T04:17:18.972Z,3.00
2018-12-27T04:19:47.596Z,3.17
2018-12-27T04:22:16.616Z,3.20
2018-12-27T04:24:45.367Z,3.53
2018-12-27T04:27:13.996Z,4.00
2018-12-27T04:29:42.653Z,3.23
2018-12-27T04:32:11.589Z,3.50
2018-12-27T04:34:41.692Z,3.70
2018-12-27T04:37:10.742Z,4.47
2018-12-27T04:39:39.370Z,4.27
2018-12-27T04:42:07.977Z,3.47
2018-12-27T04:44:37.131Z,4.00
2018-12-27T04:47:05.820Z,4.40
2018-12-27T04:49:34.432Z,4.70
2018-12-27T04:52:03.410Z,4.67
2018-12-27T04:54:32.035Z,3.77
2018-12-27T04:57:00.658Z,4.43
2018-12-27T04:59:29.667Z,4.70
2018-12-27T05:01:58.297Z,5.10
2018-12-27T05:04:26.919Z,5.07
2018-12-27T05:06:55.866Z,5.90
2018-12-27T05:09:24.564Z,5.83
2018-12-27T05:11:53.262Z,5.57
2018-12-27T05:14:22.174Z,5.00
2018-12-27T05:16:50.802Z,5.93
2018-12-27T05:19:19.503Z,6.67
2018-12-27T05:21:48.230Z,5.83
2018-12-27T05:24:16.845Z,6.73
2018-12-27T05:26:45.586Z,5.90
2018-12-27T05:29:14.681Z,6.97
2018-12-27T05:31:43.375Z,7.40
2018-12-27T05:34:12.034Z,7.20
2018-12-27T05:36:40.703Z,5.93
2018-12-27T05:39:09.393Z,9.50
2018-12-27T05:41:38.029Z,7.77
2018-12-27T05:44:06.924Z,7.53
2018-12-27T05:46:35.555Z,7.43
2018-12-27T05:49:04.171Z,8.00
2018-12-27T05:51:32.991Z,8.23
2018-12-27T05:54:01.611Z,6.57
2018-12-27T05:56:30.313Z,8.23
2018-12-27T05:58:59.259Z,8.97
2018-12-27T06:01:27.962Z,7.37
2018-12-27T06:03:56.599Z,6.83
2018-12-27T06:06:25.594Z,9.43
2018-12-27T06:08:54.262Z,8.33
2018-12-27T06:11:23.040Z,8.40
2018-12-27T06:13:51.768Z,9.60
2018-12-27T06:16:20.463Z,8.40
2018-12-27T06:18:49.192Z,8.93
2018-12-27T06:21:17.845Z,8.73
2018-12-27T06:23:46.549Z,9.70
2018-12-27T06:26:15.263Z,9.40
2018-12-27T06:28:44.126Z,9.20
2018-12-27T06:31:12.746Z,8.27
2018-12-27T06:33:41.416Z,8.70
2018-12-27T06:36:10.333Z,10.17
2018-12-27T06:38:38.974Z,9.53
2018-12-27T06:41:07.609Z,10.43
2018-12-27T06:43:36.523Z,9.70
2018-12-27T06:46:05.227Z,9.57
2018-12-27T06:48:33.847Z,9.30
2018-12-27T06:51:02.507Z,8.37
2018-12-27T06:53:31.129Z,8.87
2018-12-27T06:55:59.858Z,10.27
2018-12-27T06:58:28.581Z,11.17
2018-12-27T07:00:57.285Z,9.37
2018-12-27T07:03:25.923Z,10.30
2018-12-27T07:05:54.865Z,11.67
2018-12-27T07:08:23.567Z,10.13
2018-12-27T07:10:52.260Z,10.57
2018-12-27T07:13:21.361Z,9.43
2018-12-27T07:15:50.054Z,11.23
2018-12-27T07:18:18.744Z,12.30
2018-12-27T07:20:47.685Z,12.87
2018-12-27T07:23:16.305Z,10.60
2018-12-27T07:25:44.938Z,11.10
2018-12-27T07:28:13.817Z,11.00
2018-12-27T07:30:42.493Z,10.93
2018-12-27T07:33:11.196Z,10.20
2018-12-27T07:35:40.272Z,10.27
2018-12-27T07:38:08.896Z,10.10
2018-12-27T07:40:37.530Z,10.90
2018-12-27T07:43:06.198Z,11.03
2018-12-27T07:45:34.827Z,10.10
2018-12-27T07:48:03.444Z,11.13
2018-12-27T07:50:32.535Z,12.77
2018-12-27T07:53:01.185Z,11.27
2018-12-27T07:55:29.873Z,11.20
2018-12-27T07:57:58.890Z,12.10
2018-12-27T08:00:27.536Z,11.43
2018-12-27T08:02:56.231Z,11.93
2018-12-27T08:05:25.250Z,11.40
2018-12-27T08:07:54.146Z,13.30
2018-12-27T08:10:22.896Z,12.00
2018-12-27T08:12:51.575Z,12.17
2018-12-27T08:15:20.315Z,11.77
2018-12-27T08:17:49.027Z,12.27
2018-12-27T08:20:17.715Z,14.07
2018-12-27T08:22:46.373Z,14.27
2018-12-27T08:25:15.061Z,13.80
2018-12-27T08:27:43.927Z,14.23
2018-12-27T08:30:12.635Z,12.57
2018-12-27T08:32:41.323Z,13.90
2018-12-27T08:35:11.683Z,40.77
2018-12-27T08:37:40.513Z,39.30
2018-12-27T08:40:09.214Z,16.50
2018-12-27T08:42:38.295Z,13.03
2018-12-27T08:45:06.917Z,12.87
2018-12-27T08:47:35.543Z,14.03
2018-12-27T08:50:05.915Z,12.60
2018-12-27T08:52:34.537Z,14.90
2018-12-27T08:55:03.209Z,19.97
2018-12-27T08:57:32.127Z,12.10
2018-12-27T09:00:00.815Z,13.43
2018-12-27T09:02:29.449Z,25.27
2018-12-27T09:04:58.313Z,31.27
2018-12-27T09:07:27.318Z,13.00
2018-12-27T09:09:56.017Z,12.50
2018-12-27T09:12:24.892Z,13.53
2018-12-27T09:14:53.626Z,15.33
2018-12-27T09:17:22.329Z,24.87
2018-12-27T09:19:51.241Z,13.87
2018-12-27T09:22:19.867Z,11.07
2018-12-27T09:24:48.503Z,12.27
2018-12-27T09:27:17.506Z,11.80
2018-12-27T09:29:46.130Z,11.67
2018-12-27T09:32:14.837Z,10.63
2018-12-27T09:34:43.509Z,12.17
2018-12-27T09:37:12.130Z,14.23
2018-12-27T09:39:40.789Z,56.73
2018-12-27T09:42:09.516Z,27.20
2018-12-27T09:44:38.214Z,15.57
2018-12-27T09:47:06.845Z,10.27
2018-12-27T09:49:35.777Z,9.23
2018-12-27T09:52:04.476Z,11.97
2018-12-27T09:54:33.183Z,12.67
2018-12-27T09:57:01.863Z,11.67
2018-12-27T09:59:30.499Z,12.63
2018-12-27T10:01:59.135Z,10.47
2018-12-27T10:04:28.094Z,12.53
2018-12-27T10:06:56.730Z,15.00
2018-12-27T10:09:25.474Z,15.60
2018-12-27T10:11:54.104Z,14.30
2018-12-27T10:14:22.785Z,14.53
2018-12-27T10:16:51.768Z,12.17
2018-12-27T10:19:20.467Z,11.97
2018-12-27T10:21:49.198Z,12.70
2018-12-27T10:24:17.875Z,12.20
2018-12-27T10:26:46.629Z,12.17
2018-12-27T10:29:15.352Z,12.83
2018-12-27T10:31:44.351Z,14.93
2018-12-27T10:34:13.153Z,11.60
2018-12-27T10:36:41.849Z,10.30
2018-12-27T10:39:10.602Z,12.23
2018-12-27T10:41:39.319Z,10.50
2018-12-27T10:44:07.943Z,11.03
2018-12-27T10:46:36.874Z,14.53
2018-12-27T10:49:05.491Z,14.53
2018-12-27T10:51:34.200Z,14.10
2018-12-27T10:54:03.239Z,13.43
2018-12-27T10:56:31.870Z,12.40
2018-12-27T10:59:00.594Z,12.20
2018-12-27T11:01:29.296Z,12.70
2018-12-27T11:03:58.001Z,14.17
2018-12-27T11:06:26.634Z,13.30
2018-12-27T11:08:55.645Z,14.33
2018-12-27T11:11:24.350Z,15.20
2018-12-27T11:13:53.067Z,14.30
2018-12-27T11:16:21.725Z,14.83
2018-12-27T11:18:50.448Z,14.53
2018-12-27T11:21:19.127Z,14.37
2018-12-27T11:23:47.871Z,15.07
2018-12-27T11:26:16.509Z,13.40
2018-12-27T11:28:45.200Z,14.97
2018-12-27T11:31:14.216Z,13.63
2018-12-27T11:33:42.838Z,16.30
2018-12-27T11:36:17.206Z,12.73
2018-12-27T11:38:42.118Z,12.03
2018-12-27T11:41:10.781Z,14.40
2018-12-27T11:43:39.453Z,12.77
2018-12-27T11:46:08.375Z,14.00
2018-12-27T11:48:37.030Z,15.10
2018-12-27T11:51:05.648Z,16.10
2018-12-27T11:53:34.661Z,15.60
2018-12-27T11:56:03.362Z,13.87
2018-12-27T11:58:32.057Z,12.70
2018-12-27T12:01:00.784Z,13.63
2018-12-27T12:03:29.404Z,10.83
2018-12-27T12:06:03.175Z,12.00
2018-12-27T12:08:28.491Z,12.93
2018-12-27T12:10:57.198Z,13.23
2018-12-27T12:13:25.940Z,15.40
2018-12-27T12:15:54.739Z,16.90
2018-12-27T12:18:23.369Z,14.33
2018-12-27T12:20:52.007Z,15.20
2018-12-27T12:23:20.762Z,15.63
2018-12-27T12:25:49.385Z,14.83
2018-12-27T12:28:18.044Z,15.17
2018-12-27T12:30:46.778Z,15.67
2018-12-27T12:33:15.538Z,16.33
2018-12-27T12:35:44.243Z,16.60
2018-12-27T12:38:13.242Z,15.37
2018-12-27T12:40:41.983Z,12.00
2018-12-27T12:43:10.679Z,12.37
2018-12-27T12:45:39.598Z,12.63
2018-12-27T12:48:08.244Z,12.60
2018-12-27T12:50:36.881Z,12.77
2018-12-27T12:53:05.547Z,12.87
2018-12-27T12:55:34.183Z,12.30
2018-12-27T12:58:02.804Z,13.13
2018-12-27T13:00:31.473Z,10.90
2018-12-27T13:03:00.192Z,12.23
2018-12-27T13:05:28.818Z,13.67
2018-12-27T13:08:00.514Z,15.20
2018-12-27T13:10:29.185Z,15.30
2018-12-27T13:12:57.862Z,13.20
2018-12-27T13:15:26.558Z,16.63
2018-12-27T13:17:55.289Z,15.30
2018-12-27T13:20:24.249Z,14.57
2018-12-27T13:22:52.900Z,14.30
2018-12-27T13:25:21.608Z,16.03
2018-12-27T13:27:50.516Z,16.30
2018-12-27T13:30:19.236Z,17.67
2018-12-27T13:32:47.861Z,14.47
2018-12-27T13:35:16.752Z,15.37
2018-12-27T13:37:45.473Z,14.20
2018-12-27T13:40:20.238Z,16.13
2018-12-27T13:42:49.200Z,13.90
2018-12-27T13:45:17.845Z,14.47
2018-12-27T13:47:46.543Z,15.27
2018-12-27T13:50:15.300Z,16.20
2018-12-27T13:52:44.004Z,15.27
2018-12-27T13:55:13.617Z,12.17
2018-12-27T13:57:42.330Z,10.57
2018-12-27T14:00:10.953Z,10.77
2018-12-27T14:02:39.579Z,10.40
2018-12-27T14:05:08.777Z,13.80
2018-12-27T14:07:37.472Z,15.93
2018-12-27T14:10:07.994Z,14.53
2018-12-27T14:12:39.857Z,17.20
2018-12-27T14:15:08.505Z,17.53
2018-12-27T14:17:37.151Z,15.63
2018-12-27T14:20:08.265Z,13.00
2018-12-27T14:22:36.969Z,13.10
2018-12-27T14:25:05.591Z,12.40
2018-12-27T14:27:34.525Z,15.03
2018-12-27T14:30:03.219Z,18.07
2018-12-27T14:32:31.926Z,21.00
2018-12-27T14:35:00.883Z,18.20
2018-12-27T14:37:29.590Z,17.20
2018-12-27T14:39:58.302Z,16.57
2018-12-27T14:42:26.964Z,17.43
2018-12-27T14:44:55.728Z,15.23
2018-12-27T14:47:24.440Z,16.47
2018-12-27T14:49:53.427Z,18.23
2018-12-27T14:52:22.183Z,16.27
2018-12-27T14:54:50.850Z,14.13
2018-12-27T14:57:19.626Z,16.00
2018-12-27T14:59:48.252Z,14.60
2018-12-27T15:02:16.885Z,16.63
2018-12-27T15:04:45.950Z,18.73
2018-12-27T15:07:14.625Z,16.93
2018-12-27T15:09:43.265Z,20.67
2018-12-27T15:12:12.187Z,19.77
2018-12-27T15:14:40.845Z,16.50
2018-12-27T15:17:09.549Z,17.07
2018-12-27T15:19:38.548Z,16.43
2018-12-27T15:22:07.201Z,16.37
2018-12-27T15:24:35.906Z,14.63
2018-12-27T15:27:04.921Z,14.60
2018-12-27T15:29:33.615Z,13.60
2018-12-27T15:32:02.320Z,13.97
2018-12-27T15:34:31.181Z,16.43
2018-12-27T15:36:59.887Z,13.97
2018-12-27T15:39:28.585Z,14.13
2018-12-27T15:41:57.325Z,13.97
2018-12-27T15:44:25.953Z,13.53
2018-12-27T15:46:54.590Z,13.03
2018-12-27T15:49:23.485Z,78.90
2018-12-27T15:51:52.179Z,43.73
2018-12-27T15:54:20.881Z,22.30
2018-12-27T15:56:49.560Z,17.43
2018-12-27T15:59:18.259Z,13.50
2018-12-27T16:01:46.896Z,13.93
2018-12-27T16:04:15.601Z,15.17
2018-12-27T16:06:44.303Z,13.60
2018-12-27T16:09:12.941Z,12.97
2018-12-27T16:11:41.603Z,12.53
2018-12-27T16:14:10.291Z,11.73
2018-12-27T16:16:38.937Z,12.00
2018-12-27T16:19:07.932Z,10.97
2018-12-27T16:21:36.580Z,11.17
2018-12-27T16:24:05.269Z,9.83
2018-12-27T16:26:34.193Z,10.70
2018-12-27T16:29:02.828Z,11.30
2018-12-27T16:31:31.457Z,11.20
2018-12-27T16:34:00.187Z,10.73
2018-12-27T16:36:28.883Z,11.07
2018-12-27T16:38:57.501Z,11.27
2018-12-27T16:41:26.398Z,12.00
2018-12-27T16:43:55.101Z,13.13
2018-12-27T16:46:23.731Z,9.20
2018-12-27T16:48:52.735Z,10.93
2018-12-27T16:51:21.418Z,10.20
2018-12-27T16:53:50.037Z,9.73
2018-12-27T16:56:18.997Z,10.17
2018-12-27T16:58:47.749Z,11.57
2018-12-27T17:01:16.373Z,9.60
2018-12-27T17:03:45.058Z,10.30
2018-12-27T17:06:13.679Z,11.60
2018-12-27T17:08:42.381Z,13.03
2018-12-27T17:11:11.227Z,11.17
2018-12-27T17:13:39.860Z,11.17
2018-12-27T17:16:08.498Z,13.23
2018-12-27T17:18:37.439Z,15.83
2018-12-27T17:21:06.173Z,17.63
2018-12-27T17:23:34.799Z,19.57
2018-12-27T17:26:03.775Z,20.37
2018-12-27T17:28:32.410Z,16.93
2018-12-27T17:31:01.051Z,20.37
2018-12-27T17:33:30.134Z,19.63
2018-12-27T17:35:58.835Z,18.77
2018-12-27T17:38:27.458Z,13.03
2018-12-27T17:40:56.128Z,9.03
2018-12-27T17:43:24.836Z,10.47
2018-12-27T17:45:53.566Z,10.83
2018-12-27T17:48:22.556Z,10.83
2018-12-27T17:50:51.177Z,8.60
2018-12-27T17:53:19.878Z,8.23
2018-12-27T17:55:48.619Z,9.37
2018-12-27T17:58:17.352Z,9.17
2018-12-27T18:00:45.982Z,9.80
2018-12-27T18:03:14.973Z,9.23
2018-12-27T18:05:43.594Z,10.27
2018-12-27T18:08:12.291Z,8.73
2018-12-27T18:10:41.215Z,9.20
2018-12-27T18:13:09.885Z,8.63
2018-12-27T18:15:38.511Z,7.67
2018-12-27T18:18:07.565Z,8.50
2018-12-27T18:20:36.250Z,11.77
2018-12-27T18:23:04.891Z,9.17
2018-12-27T18:25:33.543Z,10.40
2018-12-27T18:28:02.187Z,8.73
2018-12-27T18:30:30.890Z,8.97
2018-12-27T18:32:59.792Z,10.20
2018-12-27T18:35:28.431Z,10.73
2018-12-27T18:37:57.147Z,9.53
2018-12-27T18:40:25.873Z,10.30
2018-12-27T18:42:54.511Z,11.47
2018-12-27T18:45:23.143Z,10.73
2018-12-27T18:47:51.904Z,10.67
2018-12-27T18:50:20.604Z,10.80
2018-12-27T18:52:49.225Z,10.30
2018-12-27T18:55:20.294Z,7.77
2018-12-27T18:57:48.310Z,8.93
2018-12-27T19:00:17.027Z,10.07
2018-12-27T19:02:45.966Z,7.43
2018-12-27T19:05:14.579Z,6.83
2018-12-27T19:07:45.097Z,9.33
2018-12-27T19:10:13.674Z,8.10
2018-12-27T19:13:07.417Z,9.00
2018-12-27T19:15:45.054Z,9.90
2018-12-27T19:18:25.132Z,10.43
2018-12-27T19:20:58.937Z,10.93
2018-12-27T19:23:28.183Z,9.97
2018-12-27T19:25:56.907Z,9.00
2018-12-27T19:28:25.756Z,9.33
2018-12-27T19:30:54.379Z,8.70
2018-12-27T19:33:23.094Z,10.70
2018-12-27T19:35:52.124Z,12.77
2018-12-27T19:38:20.748Z,13.20
2018-12-27T19:40:49.392Z,12.33
2018-12-27T19:43:18.289Z,12.97
2018-12-27T19:45:46.932Z,12.93
2018-12-27T19:48:15.633Z,14.97
2018-12-27T19:50:44.289Z,11.93
2018-12-27T19:53:12.988Z,10.87
2018-12-27T19:55:41.688Z,7.70
2018-12-27T19:58:10.708Z,6.67
2018-12-27T20:00:39.337Z,6.43
2018-12-27T20:03:08.064Z,7.50
2018-12-27T20:05:37.076Z,9.67
2018-12-27T20:08:05.692Z,8.93
2018-12-27T20:10:34.312Z,7.70
2018-12-27T20:13:03.322Z,8.43
2018-12-27T20:15:31.958Z,8.77
2018-12-27T20:18:00.662Z,10.23
2018-12-27T20:20:39.976Z,12.23
2018-12-27T20:22:59.932Z,13.50
2018-12-27T20:25:28.552Z,13.07
2018-12-27T20:27:57.596Z,11.13
2018-12-27T20:30:26.229Z,12.20
2018-12-27T20:32:54.852Z,13.70
2018-12-27T20:35:23.855Z,12.67
2018-12-27T20:37:52.504Z,10.90
2018-12-27T20:40:21.148Z,10.97
2018-12-27T20:42:49.915Z,12.73
2018-12-27T20:45:18.553Z,12.07
2018-12-27T20:47:47.174Z,12.50
2018-12-27T20:50:16.178Z,11.07
2018-12-27T20:52:44.880Z,11.63
2018-12-27T20:55:13.605Z,11.50
2018-12-27T20:57:42.542Z,11.63
2018-12-27T21:00:11.533Z,14.27
2018-12-27T21:02:40.281Z,12.93
2018-12-27T21:05:09.017Z,13.90
2018-12-27T21:07:37.641Z,13.70
2018-12-27T21:10:06.331Z,5.97
2018-12-27T21:12:35.061Z,6.93
2018-12-27T21:15:03.758Z,6.30
2018-12-27T21:17:32.386Z,7.03
2018-12-27T21:20:01.305Z,6.60
2018-12-27T21:22:29.921Z,7.60
2018-12-27T21:24:58.543Z,7.60
2018-12-27T21:27:27.475Z,8.17
2018-12-27T21:29:56.276Z,7.17
2018-12-27T21:32:25.015Z,7.97
2018-12-27T21:34:54.037Z,9.20
2018-12-27T21:37:28.370Z,9.33
2018-12-27T21:39:57.078Z,11.30
2018-12-27T21:42:26.138Z,11.37
2018-12-27T21:44:54.830Z,11.63
2018-12-27T21:47:23.526Z,10.50
2018-12-27T21:49:52.516Z,11.07
2018-12-27T21:52:21.143Z,11.70
2018-12-27T21:54:49.835Z,13.20
2018-12-27T21:57:18.564Z,11.50
2018-12-27T21:59:47.199Z,11.37
2018-12-27T22:02:15.829Z,11.87
2018-12-27T22:04:44.821Z,12.20
2018-12-27T22:07:13.447Z,11.60
2018-12-27T22:09:42.085Z,12.27
2018-12-27T22:12:11.090Z,10.60
2018-12-27T22:14:39.831Z,11.20
2018-12-27T22:17:08.449Z,11.17
2018-12-27T22:19:37.448Z,11.93
2018-12-27T22:22:06.069Z,11.20
2018-12-27T22:24:34.757Z,12.63
2018-12-27T22:27:03.407Z,13.77
2018-12-27T22:29:32.040Z,12.87
2018-12-27T22:32:00.752Z,13.93
2018-12-27T22:34:29.766Z,15.73
2018-12-27T22:36:58.386Z,16.20
2018-12-27T22:39:27.008Z,12.50
2018-12-27T22:41:56.019Z,11.10
2018-12-27T22:44:24.637Z,9.17
2018-12-27T22:46:53.262Z,5.97
2018-12-27T22:49:22.279Z,4.47
2018-12-27T22:51:50.891Z,4.70
2018-12-27T22:54:19.523Z,4.30
2018-12-27T22:56:48.490Z,3.97
2018-12-27T22:59:17.116Z,4.83
2018-12-27T23:01:45.729Z,5.23
2018-12-27T23:04:14.704Z,6.00
2018-12-27T23:06:43.330Z,6.43
2018-12-27T23:09:12.020Z,5.90
2018-12-27T23:11:40.679Z,6.50
2018-12-27T23:14:09.303Z,5.97
2018-12-27T23:16:37.995Z,5.90
2018-12-27T23:19:06.901Z,5.80
2018-12-27T23:21:35.523Z,6.00
2018-12-27T23:24:04.236Z,5.60
2018-12-27T23:26:32.890Z,5.77
2018-12-27T23:29:01.503Z,6.00
2018-12-27T23:31:30.131Z,6.23
2018-12-27T23:33:59.127Z,5.70
2018-12-27T23:36:27.748Z,5.47
2018-12-27T23:38:56.375Z,5.73
2018-12-27T23:41:25.400Z,4.07
2018-12-27T23:43:54.050Z,3.97
2018-12-27T23:46:22.732Z,4.67
2018-12-27T23:48:51.751Z,3.77
2018-12-27T23:51:20.361Z,3.50
2018-12-27T23:53:48.984Z,3.33
2018-12-27T23:56:17.899Z,3.20
2018-12-27T23:58:46.584Z,3.93
